Recommended Posts

Hi, can someone help me with what this means - 0150 R18/0700D

 

am i right in thinking its runway R18 and vis decreasing 700m?

 

but what does 0150 mean...

 

LFLB 181930Z AUTO 06001KT 0150 R18/0700D FG BKN007 05/04 Q1027

Share this post


Link to post
Share on other sites
Help AVSIM continue to serve you!
Please donate today!

Brilliant, thanks!!

 

This was the reported VIS and it was NC 1 hr before or after ETA.

 

So i still dispatched the flight aslong as i had two alternates above minima.

 

Had to go-around at 1690 DA, and divert to my alternate. Still landed with my FINAL RESERVE plus 150kg of my alternate pheww no pan call or MAYDAY

Share this post


Link to post
Share on other sites

Create an account or sign in to comment

You need to be a member in order to leave a comment

Create an account

Sign up for a new account in our community. It's easy!

Register a new account

Sign in

Already have an account? Sign in here.

Sign In Now
Sign in to follow this